Time;durP1;ratioP1;P1;durP2;ratioP2;P2;SDS_P1;SDS_P2;PMS_P1;PMS_P2;Temp;Humidity;BMP_temperature;BMP_pressure;BME280_temperature;BME280_humidity;BME280_pressure;Samples;Min_cycle;Max_cycle;Signal;HPM_P1;HPM_P2
2022/07/17 00:03:21;;;;;;;11.10;1.90;;;;;;;14.83;79.11;101605.84;8362280;28;20052;-56
2022/07/17 00:07:22;;;;;;;10.93;1.63;;;;;;;14.91;78.99;101613.31;8358928;28;20532;-57
2022/07/17 00:11:22;;;;;;;7.32;1.95;;;;;;;15.06;78.41;101604.56;8359271;28;20083;-56
2022/07/17 00:15:22;;;;;;;11.40;1.80;;;;;;;15.01;78.37;101612.28;8356106;28;20040;-56
2022/07/17 00:19:24;;;;;;;11.65;1.67;;;;;;;14.91;79.57;101605.97;8359559;28;20299;-53
2022/07/17 00:23:24;;;;;;;8.18;1.40;;;;;;;14.72;80.28;101616.84;8361912;28;20072;-56
2022/07/17 00:27:25;;;;;;;8.17;1.63;;;;;;;14.83;78.98;101607.69;8362418;28;20497;-54
2022/07/17 00:31:25;;;;;;;6.13;1.65;;;;;;;14.69;79.50;101605.38;8362179;28;20349;-56
2022/07/17 00:35:25;;;;;;;6.80;1.13;;;;;;;14.64;79.52;101603.06;8362121;28;20032;-55
2022/07/17 00:39:26;;;;;;;7.20;1.60;;;;;;;14.67;79.68;101602.78;8362120;28;20107;-54
2022/07/17 00:43:26;;;;;;;3.15;1.20;;;;;;;14.58;80.86;101609.06;8361459;28;20045;-56
2022/07/17 00:47:27;;;;;;;6.30;1.75;;;;;;;14.49;81.59;101604.47;8360796;28;20119;-56
2022/07/17 00:51:28;;;;;;;8.40;1.40;;;;;;;14.62;80.72;101605.09;8361520;28;20037;-56
2022/07/17 00:55:29;;;;;;;8.05;1.80;;;;;;;14.58;81.09;101603.63;8359866;28;20481;-55
2022/07/17 00:59:32;;;;;;;7.25;1.90;;;;;;;14.59;80.88;101604.50;8361549;28;20047;-55
2022/07/17 01:03:34;;;;;;;8.10;2.10;;;;;;;14.61;81.08;101595.19;8361346;28;20045;-55
2022/07/17 01:07:34;;;;;;;6.32;1.60;;;;;;;14.43;82.37;101599.59;8362193;28;20033;-56
2022/07/17 01:11:34;;;;;;;6.90;1.95;;;;;;;14.21;82.31;101598.91;8362321;28;20041;-57
2022/07/17 01:15:38;;;;;;;9.75;2.15;;;;;;;14.13;81.66;101606.88;8361213;28;20078;-57
2022/07/17 01:19:38;;;;;;;4.60;1.23;;;;;;;13.97;82.53;101612.84;8361920;28;20037;-57
2022/07/17 01:23:38;;;;;;;7.30;2.15;;;;;;;13.71;84.77;101611.53;8360821;28;20087;-55
2022/07/17 01:27:40;;;;;;;7.40;1.65;;;;;;;13.58;86.00;101605.47;8359902;28;20033;-56
2022/07/17 01:31:41;;;;;;;9.00;2.05;;;;;;;13.50;86.51;101613.41;8361617;28;20037;-56
2022/07/17 01:35:41;;;;;;;8.25;2.50;;;;;;;13.78;85.09;101601.84;8360702;28;20052;-56
2022/07/17 01:39:57;;;;;;;10.23;1.60;;;;;;;13.68;85.40;101600.94;8360493;28;20029;-56
2022/07/17 01:43:58;;;;;;;8.80;2.17;;;;;;;13.81;85.47;101598.84;8359265;28;20064;-57
2022/07/17 01:47:59;;;;;;;10.88;1.88;;;;;;;13.79;85.58;101598.16;8359193;28;20044;-55
2022/07/17 01:51:59;;;;;;;4.43;1.63;;;;;;;13.78;85.63;101602.72;8359915;28;20029;-55
2022/07/17 01:56:00;;;;;;;6.35;2.00;;;;;;;13.43;86.65;101590.47;8359735;28;20268;-55
2022/07/17 02:00:03;;;;;;;9.02;2.00;;;;;;;13.04;88.49;101596.59;8360095;28;20045;-56
2022/07/17 02:04:04;;;;;;;5.20;2.00;;;;;;;13.00;88.66;101592.44;8353371;28;20136;-56
2022/07/17 02:08:04;;;;;;;6.47;2.30;;;;;;;12.96;88.31;101590.94;8359704;28;20045;-57
2022/07/17 02:12:05;;;;;;;14.52;2.35;;;;;;;12.93;88.07;101596.63;8359884;28;20037;-53
2022/07/17 02:16:06;;;;;;;7.32;1.95;;;;;;;12.52;90.68;101591.94;8358782;28;20033;-57
2022/07/17 02:20:08;;;;;;;15.20;2.17;;;;;;;12.70;91.75;101586.84;8359577;28;20036;-54
2022/07/17 02:24:08;;;;;;;5.50;2.03;;;;;;;12.69;91.61;101588.66;8358611;28;20045;-56
2022/07/17 02:28:09;;;;;;;14.95;2.45;;;;;;;12.79;90.93;101588.78;8359668;28;20040;-54
2022/07/17 02:32:09;;;;;;;9.35;1.95;;;;;;;12.82;91.18;101580.38;8359201;28;20461;-56
2022/07/17 02:36:09;;;;;;;6.07;2.72;;;;;;;12.68;91.30;101581.53;8356138;28;20512;-57
2022/07/17 02:40:10;;;;;;;4.60;1.92;;;;;;;12.53;93.70;101587.41;8358606;28;20037;-54
2022/07/17 02:44:11;;;;;;;10.07;1.90;;;;;;;12.73;92.58;101594.72;8351500;28;20037;-56
2022/07/17 02:48:11;;;;;;;6.97;1.90;;;;;;;12.82;91.90;101594.81;8358897;28;20064;-56
2022/07/17 02:52:12;;;;;;;6.72;2.00;;;;;;;12.06;95.90;101588.56;8358901;28;20516;-56
2022/07/17 02:56:12;;;;;;;7.25;2.13;;;;;;;12.11;97.32;101585.47;8358291;28;20033;-56
2022/07/17 03:00:15;;;;;;;3.38;2.05;;;;;;;11.77;97.59;101601.72;8358439;28;20053;-57
2022/07/17 03:04:16;;;;;;;4.47;1.85;;;;;;;11.78;99.29;101603.44;8357624;28;20040;-57
2022/07/17 03:08:16;;;;;;;9.02;2.67;;;;;;;11.96;98.50;101602.97;8358835;28;20056;-56
2022/07/17 03:12:16;;;;;;;8.45;2.38;;;;;;;12.15;96.97;101603.22;8359002;28;20083;-55
2022/07/17 03:16:17;;;;;;;7.50;2.60;;;;;;;12.06;97.60;101595.81;8358106;28;20037;-57
2022/07/17 03:20:17;;;;;;;6.45;2.47;;;;;;;12.10;97.05;101600.03;8358724;28;20033;-55
2022/07/17 03:24:18;;;;;;;7.80;2.10;;;;;;;11.92;95.75;101606.91;8356041;28;20041;-56
2022/07/17 03:28:18;;;;;;;11.52;2.90;;;;;;;11.46;99.13;101607.81;8363298;28;20033;-57
2022/07/17 03:32:18;;;;;;;5.63;2.22;;;;;;;11.13;100.00;101596.88;8364875;28;20068;-56
2022/07/17 03:36:20;;;;;;;7.97;2.50;;;;;;;11.23;100.00;101608.72;8364443;28;20075;-56
2022/07/17 03:40:20;;;;;;;4.78;1.65;;;;;;;11.22;100.00;101612.41;8364808;28;20047;-56
2022/07/17 03:44:21;;;;;;;9.30;2.50;;;;;;;11.48;98.92;101618.50;8362979;28;20068;-57
2022/07/17 03:48:21;;;;;;;8.52;2.40;;;;;;;11.49;99.50;101615.69;8364491;28;20053;-57
2022/07/17 03:52:21;;;;;;;4.30;2.05;;;;;;;11.32;99.84;101629.66;8364314;28;20047;-56
2022/07/17 03:56:22;;;;;;;6.57;2.33;;;;;;;11.20;100.00;101627.88;8364208;28;20057;-56
2022/07/17 04:00:23;;;;;;;8.00;2.17;;;;;;;11.30;100.00;101631.66;8364173;28;20037;-56
2022/07/17 04:04:24;;;;;;;6.78;2.47;;;;;;;11.55;100.00;101631.47;8363219;28;20531;-57
2022/07/17 04:08:24;;;;;;;5.78;2.38;;;;;;;11.34;100.00;101621.41;8363679;28;20394;-57
2022/07/17 04:12:25;;;;;;;5.97;2.47;;;;;;;11.27;100.00;101621.03;8363569;28;20413;-56
2022/07/17 04:16:26;;;;;;;10.65;3.00;;;;;;;11.41;100.00;101618.13;8362230;28;20090;-57
2022/07/17 04:20:28;;;;;;;7.30;2.30;;;;;;;11.60;100.00;101612.16;8363316;28;20040;-57
2022/07/17 04:24:28;;;;;;;4.80;2.63;;;;;;;11.79;98.59;101623.28;8362347;28;20087;-57
2022/07/17 04:28:29;;;;;;;14.90;2.67;;;;;;;11.83;97.27;101631.03;8362899;28;20033;-56
2022/07/17 04:32:29;;;;;;;6.07;2.60;;;;;;;11.94;96.35;101627.50;8362861;28;20045;-56
2022/07/17 04:36:29;;;;;;;7.63;2.95;;;;;;;12.02;95.21;101618.75;8361486;28;20032;-57
2022/07/17 04:40:30;;;;;;;8.45;3.13;;;;;;;12.21;94.32;101616.25;8362839;28;20083;-56
2022/07/17 04:44:31;;;;;;;7.18;2.78;;;;;;;12.52;93.49;101612.78;8361383;28;20067;-56
2022/07/17 04:48:31;;;;;;;5.55;3.33;;;;;;;12.76;92.75;101618.88;8362289;28;20033;-56
2022/07/17 04:52:32;;;;;;;6.75;2.72;;;;;;;12.90;93.32;101624.88;8362113;28;20098;-56
2022/07/17 04:56:32;;;;;;;8.00;2.83;;;;;;;13.19;91.42;101627.88;8361519;28;20033;-56
2022/07/17 05:00:33;;;;;;;6.25;2.55;;;;;;;13.05;91.14;101622.78;8361616;28;20056;-57
2022/07/17 05:04:33;;;;;;;6.28;2.70;;;;;;;13.30;90.58;101636.00;8360361;28;20025;-57
2022/07/17 05:08:34;;;;;;;10.63;3.08;;;;;;;13.39;89.97;101640.66;8361058;28;20091;-56
2022/07/17 05:12:36;;;;;;;4.40;2.58;;;;;;;13.56;89.19;101645.47;8360576;28;20643;-56
2022/07/17 05:16:36;;;;;;;6.30;2.50;;;;;;;13.83;86.33;101653.97;8361023;28;20036;-57
2022/07/17 05:20:36;;;;;;;10.88;3.20;;;;;;;13.76;87.63;101652.78;8360592;28;20044;-57
2022/07/17 05:24:37;;;;;;;9.32;3.45;;;;;;;13.93;88.27;101644.00;8359921;28;20033;-56
2022/07/17 05:28:37;;;;;;;7.03;2.58;;;;;;;14.01;87.28;101660.50;8359374;28;20029;-56
2022/07/17 05:32:38;;;;;;;8.05;2.85;;;;;;;14.07;86.57;101661.81;8360328;28;20444;-57
2022/07/17 05:36:38;;;;;;;9.00;2.70;;;;;;;14.36;86.29;101668.31;8359491;28;20444;-57
2022/07/17 05:40:38;;;;;;;7.78;2.80;;;;;;;14.71;86.18;101664.13;8358949;28;20267;-57
2022/07/17 05:44:39;;;;;;;7.35;2.65;;;;;;;14.77;83.02;101668.16;8359240;28;20049;-57
2022/07/17 05:48:39;;;;;;;7.57;2.50;;;;;;;15.21;82.72;101679.41;8359323;28;20163;-57
2022/07/17 05:52:40;;;;;;;7.90;2.88;;;;;;;15.37;82.69;101674.28;8360044;28;20272;-56
2022/07/17 05:56:40;;;;;;;6.53;2.80;;;;;;;15.80;80.87;101681.16;8358706;28;20040;-57
2022/07/17 06:00:41;;;;;;;7.35;2.72;;;;;;;15.94;81.23;101677.97;8358753;28;20028;-56
2022/07/17 06:04:41;;;;;;;7.43;2.78;;;;;;;16.37;80.53;101680.97;8359133;28;20457;-57
2022/07/17 06:08:42;;;;;;;7.05;3.05;;;;;;;16.53;78.91;101678.53;8359568;28;20025;-57
2022/07/17 06:12:42;;;;;;;8.07;2.40;;;;;;;16.58;78.97;101673.47;8359535;28;20040;-57
2022/07/17 06:16:42;;;;;;;9.95;2.58;;;;;;;16.97;77.45;101686.78;8358453;28;20029;-57
2022/07/17 06:20:43;;;;;;;11.20;2.97;;;;;;;17.49;76.73;101677.78;8358897;28;20056;-57
2022/07/17 06:24:43;;;;;;;13.77;2.60;;;;;;;17.22;75.25;101676.94;8356509;28;20321;-57
2022/07/17 06:28:43;;;;;;;4.50;2.40;;;;;;;17.69;75.92;101675.75;8358373;28;20274;-57
2022/07/17 06:32:44;;;;;;;7.72;2.17;;;;;;;18.00;74.60;101671.53;8357812;28;20632;-57
2022/07/17 06:36:44;;;;;;;11.40;2.53;;;;;;;18.22;73.23;101667.38;8358043;28;20432;-57
2022/07/17 06:40:44;;;;;;;9.38;3.08;;;;;;;18.38;72.26;101664.78;8358065;28;20044;-57
2022/07/17 06:44:45;;;;;;;7.63;2.80;;;;;;;18.48;72.70;101657.31;8355330;28;20052;-57
2022/07/17 06:48:55;;;;;;;10.13;2.40;;;;;;;18.94;71.38;101663.13;8326408;28;20041;-58
2022/07/17 06:52:55;;;;;;;10.13;2.78;;;;;;;19.10;70.63;101649.50;8347403;28;20033;-58
2022/07/17 06:56:55;;;;;;;14.15;2.67;;;;;;;19.03;70.11;101653.91;8358602;28;20041;-57
2022/07/17 07:00:56;;;;;;;9.23;2.78;;;;;;;19.16;70.56;101662.50;8361571;28;20413;-58
2022/07/17 07:04:56;;;;;;;8.65;2.50;;;;;;;19.56;69.99;101660.88;8364695;28;20040;-57
2022/07/17 07:08:57;;;;;;;6.68;2.38;;;;;;;19.79;67.74;101659.19;8365226;28;20102;-56
2022/07/17 07:12:57;;;;;;;11.15;2.50;;;;;;;20.17;67.71;101650.22;8364789;28;20033;-57
2022/07/17 07:16:57;;;;;;;11.15;3.17;;;;;;;20.45;67.48;101651.53;8364557;28;20029;-57
2022/07/17 07:20:58;;;;;;;6.78;2.20;;;;;;;19.92;66.85;101656.75;8364157;28;20120;-57
2022/07/17 07:24:58;;;;;;;9.13;2.50;;;;;;;20.00;65.72;101646.63;8364127;28;20506;-58
2022/07/17 07:28:59;;;;;;;5.53;2.17;;;;;;;20.27;66.00;101631.66;8363944;28;20078;-57
2022/07/17 07:32:59;;;;;;;11.40;2.57;;;;;;;20.94;65.26;101636.53;8363406;28;20029;-58
2022/07/17 07:36:59;;;;;;;10.23;2.53;;;;;;;21.08;63.88;101628.38;8361046;28;20315;-57
2022/07/17 07:41:00;;;;;;;11.65;2.97;;;;;;;21.05;62.99;101626.00;8362329;28;20448;-58
2022/07/17 07:45:00;;;;;;;8.32;2.65;;;;;;;20.72;63.90;101638.19;8363107;28;20497;-57
2022/07/17 07:49:00;;;;;;;9.82;2.50;;;;;;;21.11;62.99;101640.94;8363515;28;20408;-58
2022/07/17 07:53:01;;;;;;;5.45;2.00;;;;;;;21.65;62.52;101631.56;8354825;28;20040;-57
2022/07/17 07:57:02;;;;;;;6.15;2.33;;;;;;;21.71;62.31;101628.06;8357318;28;20044;-57
2022/07/17 08:01:02;;;;;;;6.70;2.20;;;;;;;21.83;60.75;101634.06;8362533;28;20083;-56
2022/07/17 08:05:03;;;;;;;6.55;1.80;;;;;;;21.69;59.60;101646.69;8360724;28;20041;-57
2022/07/17 08:09:04;;;;;;;7.53;1.98;;;;;;;22.01;59.76;101659.31;8361333;28;20067;-57
2022/07/17 08:13:05;;;;;;;9.40;2.00;;;;;;;22.38;59.67;101662.91;8359241;28;20041;-57
2022/07/17 08:17:05;;;;;;;4.13;1.88;;;;;;;22.39;57.82;101670.16;8359800;28;20512;-57
2022/07/17 08:21:06;;;;;;;5.30;1.60;;;;;;;22.73;57.49;101673.22;8361212;28;20040;-56
2022/07/17 08:25:07;;;;;;;7.75;1.52;;;;;;;22.72;57.64;101660.44;8361123;28;20520;-56
2022/07/17 08:29:07;;;;;;;7.10;1.48;;;;;;;23.03;56.18;101677.63;8357908;28;20370;-57
2022/07/17 08:33:09;;;;;;;4.40;1.17;;;;;;;23.14;55.36;101676.25;8359064;28;20091;-57
2022/07/17 08:37:09;;;;;;;8.77;1.40;;;;;;;23.06;55.17;101684.66;8356801;28;20029;-57
2022/07/17 08:41:10;;;;;;;5.57;1.42;;;;;;;23.14;55.00;101682.66;8361083;28;20041;-58
2022/07/17 08:45:12;;;;;;;4.65;1.30;;;;;;;23.61;54.02;101689.56;8359815;28;20067;-57
2022/07/17 08:49:13;;;;;;;8.07;1.20;;;;;;;23.49;52.98;101685.63;8360507;28;20490;-57
2022/07/17 08:53:14;;;;;;;5.75;1.27;;;;;;;23.80;53.50;101677.84;8361210;28;20116;-57
2022/07/17 08:57:14;;;;;;;3.78;1.17;;;;;;;23.70;51.46;101683.75;8360528;28;20044;-57
2022/07/17 09:01:16;;;;;;;6.60;1.38;;;;;;;24.45;52.20;101689.47;8360390;28;20048;-56
2022/07/17 09:05:21;;;;;;;6.05;0.93;;;;;;;24.51;49.91;101685.91;8360735;28;20047;-57
2022/07/17 09:09:21;;;;;;;6.70;1.23;;;;;;;24.28;50.37;101677.03;8348086;28;20524;-57
2022/07/17 09:13:25;;;;;;;2.67;1.03;;;;;;;24.72;50.41;101663.72;8342954;28;20037;-57
2022/07/17 09:17:27;;;;;;;3.30;1.13;;;;;;;25.10;49.50;101661.34;8344706;28;20041;-57
2022/07/17 09:21:29;;;;;;;7.15;1.42;;;;;;;24.56;51.41;101677.84;8344757;28;20690;-56
2022/07/17 09:25:35;;;;;;;7.10;1.55;;;;;;;24.46;51.82;101663.56;8342956;28;20044;-57
2022/07/17 09:29:51;;;;;;;6.00;1.10;;;;;;;24.90;48.80;101661.25;8346198;28;20045;-57
2022/07/17 09:33:51;;;;;;;3.90;1.17;;;;;;;25.09;49.20;101666.03;8339055;28;20086;-57
2022/07/17 09:37:53;;;;;;;3.95;1.20;;;;;;;25.20;50.10;101657.13;8340677;28;20121;-57
2022/07/17 09:41:53;;;;;;;7.97;1.35;;;;;;;24.82;48.58;101655.88;8348469;28;20033;-57
2022/07/17 09:45:54;;;;;;;6.72;1.08;;;;;;;24.96;48.32;101654.91;8342801;28;20044;-55
2022/07/17 09:49:56;;;;;;;3.95;1.23;;;;;;;24.92;47.12;101648.09;8337666;28;20036;-57
2022/07/17 09:53:59;;;;;;;3.42;1.02;;;;;;;25.28;48.24;101654.16;8339994;28;20086;-56
2022/07/17 09:58:02;;;;;;;6.13;1.00;;;;;;;25.43;47.42;101652.09;8341341;28;20423;-54
2022/07/17 10:02:03;;;;;;;3.20;0.88;;;;;;;26.41;46.77;101649.38;8340457;28;20047;-54
2022/07/17 10:06:03;;;;;;;7.20;1.60;;;;;;;27.08;45.99;101648.97;8339303;28;20490;-56
2022/07/17 10:10:05;;;;;;;4.07;1.25;;;;;;;27.68;43.51;101651.19;8341324;28;20394;-56
2022/07/17 10:14:10;;;;;;;6.22;1.30;;;;;;;29.68;41.54;101652.03;8337758;28;20120;-56
2022/07/17 10:18:11;;;;;;;5.55;1.00;;;;;;;29.69;40.44;101658.44;8340192;28;20172;-55
2022/07/17 10:22:11;;;;;;;7.13;1.30;;;;;;;31.08;39.42;101654.63;8340360;28;20033;-54
2022/07/17 10:26:12;;;;;;;4.38;0.90;;;;;;;31.98;38.56;101666.75;8339162;28;20634;-55
2022/07/17 10:30:21;;;;;;;6.97;1.00;;;;;;;31.40;37.97;101663.38;8332811;28;20048;-56
2022/07/17 10:34:40;;;;;;;6.68;1.30;;;;;;;30.83;38.80;101661.59;8342888;28;20280;-56
2022/07/17 10:38:42;;;;;;;3.92;1.05;;;;;;;31.33;38.38;101659.91;8335072;28;20576;-55
2022/07/17 10:42:56;;;;;;;4.18;1.33;;;;;;;31.41;37.91;101665.09;8340415;28;20048;-56
2022/07/17 10:46:58;;;;;;;5.65;1.50;;;;;;;31.64;38.12;101656.59;8338618;28;20095;-54
2022/07/17 10:50:58;;;;;;;4.45;1.10;;;;;;;32.07;37.17;101654.03;8334550;28;20041;-55
2022/07/17 10:54:59;;;;;;;3.92;0.90;;;;;;;31.99;35.73;101652.50;8336056;28;20078;-56
2022/07/17 10:59:02;;;;;;;4.83;1.37;;;;;;;32.10;36.65;101642.31;8334299;28;20464;-56
2022/07/17 11:03:09;;;;;;;3.60;1.70;;;;;;;31.17;37.46;101657.88;8336608;28;20383;-56
2022/07/17 11:07:09;;;;;;;4.00;1.20;;;;;;;30.98;38.63;101653.56;8336121;28;20114;-56
2022/07/17 11:11:10;;;;;;;4.70;1.63;;;;;;;31.24;37.98;101658.56;8337760;28;20112;-55
2022/07/17 11:15:10;;;;;;;6.07;1.60;;;;;;;31.73;38.16;101649.47;8334306;28;20626;-56
2022/07/17 11:19:11;;;;;;;6.63;1.50;;;;;;;32.23;36.29;101636.38;8338839;28;20040;-53
2022/07/17 11:23:11;;;;;;;5.20;1.50;;;;;;;33.03;36.35;101636.75;8338960;28;20048;-56
2022/07/17 11:27:20;;;;;;;4.10;1.60;;;;;;;32.76;34.86;101636.66;8335798;28;20052;-55
2022/07/17 11:31:23;;;;;;;8.40;2.53;;;;;;;33.62;35.89;101631.00;8338116;28;20033;-56
2022/07/17 11:35:24;;;;;;;3.78;1.20;;;;;;;33.55;34.89;101630.38;8331713;28;20041;-56
2022/07/17 11:39:24;;;;;;;4.32;1.63;;;;;;;32.72;34.06;101629.84;8331792;28;20133;-56
2022/07/17 11:43:24;;;;;;;3.60;1.50;;;;;;;32.81;34.81;101619.88;8334578;28;20079;-56
2022/07/17 11:47:27;;;;;;;3.80;1.50;;;;;;;32.90;34.27;101618.34;8337947;28;21498;-55
2022/07/17 11:51:36;;;;;;;6.70;1.50;;;;;;;33.38;34.18;101612.78;8341757;28;20049;-56
2022/07/17 11:55:38;;;;;;;4.00;1.50;;;;;;;34.15;35.74;101638.50;8341708;28;20092;-57
2022/07/17 11:59:39;;;;;;;9.10;1.88;;;;;;;33.03;34.65;101622.72;8345349;28;20040;-56
2022/07/17 12:03:39;;;;;;;8.98;1.95;;;;;;;31.47;36.31;101619.34;8342641;28;20048;-56
2022/07/17 12:07:47;;;;;;;3.83;1.77;;;;;;;31.45;36.57;101607.56;8341359;28;20481;-56
2022/07/17 12:11:49;;;;;;;6.72;2.47;;;;;;;30.81;36.95;101613.50;8342221;28;20064;-55
2022/07/17 12:15:50;;;;;;;5.53;1.90;;;;;;;30.09;38.29;101610.13;8340365;28;20075;-55
2022/07/17 12:19:51;;;;;;;7.05;1.73;;;;;;;28.43;40.62;101609.25;8334182;28;20052;-56
2022/07/17 12:24:03;;;;;;;9.27;1.50;;;;;;;28.07;42.73;101595.28;8339493;28;20430;-54
2022/07/17 12:28:03;;;;;;;8.32;2.42;;;;;;;28.67;41.04;101594.44;8335347;28;20536;-56
2022/07/17 12:32:07;;;;;;;8.50;1.70;;;;;;;27.73;42.42;101587.44;8343309;28;20036;-53
2022/07/17 12:36:07;;;;;;;9.02;1.92;;;;;;;27.55;43.11;101587.38;8340504;28;20249;-55
2022/07/17 12:40:08;;;;;;;10.75;2.38;;;;;;;27.11;44.82;101587.44;8342604;28;20528;-56
2022/07/17 12:44:09;;;;;;;6.65;2.17;;;;;;;27.19;44.04;101587.16;8345752;28;20037;-53
2022/07/17 12:48:09;;;;;;;7.18;2.30;;;;;;;27.42;43.41;101573.59;8346151;28;20138;-56
2022/07/17 12:52:10;;;;;;;7.18;2.20;;;;;;;27.72;43.68;101569.06;8345579;28;20452;-55
2022/07/17 12:56:10;;;;;;;5.22;1.85;;;;;;;27.25;44.31;101572.41;8348594;28;20132;-56
2022/07/17 13:00:12;;;;;;;12.70;2.35;;;;;;;27.09;43.14;101567.38;8345357;28;20040;-55
2022/07/17 13:04:13;;;;;;;7.72;2.00;;;;;;;27.22;43.55;101570.03;8346539;28;20060;-56
2022/07/17 13:08:13;;;;;;;11.57;2.53;;;;;;;27.05;43.18;101563.34;8344334;28;20102;-52
2022/07/17 13:12:14;;;;;;;8.90;2.17;;;;;;;27.38;42.77;101561.22;8348394;28;20357;-56
2022/07/17 13:16:14;;;;;;;6.88;2.05;;;;;;;27.46;43.77;101555.38;8347821;28;20040;-56
2022/07/17 13:20:15;;;;;;;8.57;2.33;;;;;;;27.33;44.03;101552.72;8348536;28;20317;-56
2022/07/17 13:24:16;;;;;;;6.95;2.10;;;;;;;27.08;44.27;101552.63;8333097;28;20061;-56
2022/07/17 13:28:17;;;;;;;8.27;2.15;;;;;;;27.40;44.80;101550.72;8341053;28;20080;-55
2022/07/17 13:32:17;;;;;;;8.52;1.67;;;;;;;27.47;44.09;101548.78;8337139;28;20072;-53
2022/07/17 13:36:17;;;;;;;9.43;2.38;;;;;;;27.35;44.05;101550.56;8340376;28;20234;-55
2022/07/17 13:40:19;;;;;;;4.97;2.38;;;;;;;27.35;44.19;101547.78;8341894;28;20110;-55
2022/07/17 13:44:20;;;;;;;11.65;2.20;;;;;;;27.13;44.08;101546.38;8339308;28;20045;-55
2022/07/17 13:48:21;;;;;;;4.95;1.95;;;;;;;28.14;43.44;101535.72;8338023;28;20555;-56
2022/07/17 13:52:22;;;;;;;6.68;1.60;;;;;;;27.88;42.94;101529.59;8330148;28;20792;-54
2022/07/17 13:56:22;;;;;;;6.85;1.50;;;;;;;27.76;43.04;101539.72;8341214;28;20120;-56
2022/07/17 14:00:23;;;;;;;6.28;2.13;;;;;;;27.65;42.13;101540.47;8340866;28;20205;-56
2022/07/17 14:04:23;;;;;;;10.02;2.45;;;;;;;27.35;43.71;101529.16;8337346;28;20075;-56
2022/07/17 14:08:24;;;;;;;6.47;1.73;;;;;;;27.43;43.87;101534.47;8339699;28;20144;-56
2022/07/17 14:12:24;;;;;;;8.15;1.80;;;;;;;27.46;43.53;101530.38;8339355;28;20553;-55
2022/07/17 14:16:25;;;;;;;5.28;1.88;;;;;;;27.58;43.71;101528.56;8340292;28;20051;-56
2022/07/17 14:20:25;;;;;;;5.65;1.88;;;;;;;27.80;42.92;101527.94;8335658;28;20048;-56
2022/07/17 14:24:25;;;;;;;9.77;2.22;;;;;;;27.43;43.37;101519.72;8337078;28;20051;-56
2022/07/17 14:28:26;;;;;;;4.75;1.60;;;;;;;27.62;43.85;101518.69;8339974;28;20040;-56
2022/07/17 14:32:27;;;;;;;5.82;1.42;;;;;;;27.53;42.09;101508.97;8337913;28;20037;-55
2022/07/17 14:36:28;;;;;;;6.20;1.80;;;;;;;27.44;41.55;101499.22;8335844;28;20035;-54
2022/07/17 14:40:28;;;;;;;7.25;1.35;;;;;;;27.51;41.34;101500.00;8339997;28;20033;-56
2022/07/17 14:44:30;;;;;;;6.22;1.60;;;;;;;27.60;41.36;101505.00;8337724;28;20053;-56
2022/07/17 14:48:31;;;;;;;3.25;1.50;;;;;;;27.41;40.87;101511.59;8339338;28;20041;-55
2022/07/17 14:52:31;;;;;;;8.55;1.60;;;;;;;27.39;41.01;101510.13;8333070;28;20563;-55
2022/07/17 14:56:32;;;;;;;4.28;1.58;;;;;;;27.66;40.61;101497.72;8336090;28;20041;-56
2022/07/17 15:00:32;;;;;;;7.75;1.60;;;;;;;27.95;40.31;101491.44;8336328;28;20041;-56
2022/07/17 15:04:35;;;;;;;3.55;1.30;;;;;;;27.71;39.76;101489.53;8335192;28;20495;-56
2022/07/17 15:08:36;;;;;;;7.82;1.80;;;;;;;27.24;39.39;101481.81;8338819;28;20037;-55
2022/07/17 15:12:36;;;;;;;1.52;1.00;;;;;;;27.47;39.57;101473.75;8335626;28;21533;-56
2022/07/17 15:16:37;;;;;;;6.60;1.42;;;;;;;27.92;38.67;101472.44;8337118;28;20062;-54
2022/07/17 15:20:38;;;;;;;6.47;1.80;;;;;;;27.63;38.32;101464.81;8338004;28;20401;-56
2022/07/17 15:24:38;;;;;;;8.25;1.58;;;;;;;27.55;38.56;101462.31;8342215;28;20841;-56
2022/07/17 15:28:38;;;;;;;3.83;1.40;;;;;;;27.71;37.66;101450.59;8343436;28;20172;-55
2022/07/17 15:32:39;;;;;;;7.80;1.40;;;;;;;27.49;37.51;101446.56;8342165;28;20636;-54
2022/07/17 15:36:39;;;;;;;1.75;1.00;;;;;;;27.59;38.21;101441.31;8344658;28;20064;-53
2022/07/17 15:40:39;;;;;;;7.97;1.17;;;;;;;27.67;39.88;101443.81;8341834;28;20053;-56
2022/07/17 15:44:40;;;;;;;4.60;1.30;;;;;;;27.74;39.75;101441.81;8340661;28;20045;-56
2022/07/17 15:48:54;;;;;;;2.97;1.17;;;;;;;27.93;40.14;101438.03;8344282;28;20408;-56
2022/07/17 15:52:54;;;;;;;3.38;1.05;;;;;;;27.81;40.60;101439.81;8344047;28;20041;-53
2022/07/17 15:56:55;;;;;;;4.53;1.20;;;;;;;27.99;40.20;101437.09;8349349;28;20359;-56
2022/07/17 16:00:55;;;;;;;3.20;1.13;;;;;;;28.11;39.95;101436.06;8341596;28;20815;-55
2022/07/17 16:04:55;;;;;;;3.53;1.10;;;;;;;28.26;40.55;101435.66;8342421;28;20037;-56
2022/07/17 16:08:57;;;;;;;4.20;1.00;;;;;;;27.99;39.60;101442.66;8345818;28;20765;-54
2022/07/17 16:12:58;;;;;;;6.70;1.38;;;;;;;27.92;40.77;101425.19;8344998;28;20282;-56
2022/07/17 16:16:58;;;;;;;10.43;1.65;;;;;;;27.90;40.60;101430.13;8344402;28;20147;-56
2022/07/17 16:20:58;;;;;;;2.70;1.20;;;;;;;28.05;40.00;101430.56;8345072;28;20120;-56
2022/07/17 16:24:59;;;;;;;2.90;1.60;;;;;;;28.37;39.57;101429.31;8342694;28;20283;-56
2022/07/17 16:28:59;;;;;;;2.40;0.97;;;;;;;28.20;39.39;101422.69;8340667;28;20043;-54
2022/07/17 16:33:00;;;;;;;2.45;1.23;;;;;;;27.85;39.69;101418.81;8342804;28;20431;-55
2022/07/17 16:37:00;;;;;;;5.03;1.20;;;;;;;28.16;38.71;101427.03;8344913;28;20045;-56
2022/07/17 16:41:01;;;;;;;2.87;1.33;;;;;;;27.80;38.66;101422.28;8343373;28;20497;-53
2022/07/17 16:45:01;;;;;;;4.22;1.48;;;;;;;27.44;38.77;101410.31;8343993;28;20299;-56
2022/07/17 16:49:01;;;;;;;3.30;1.52;;;;;;;27.75;38.44;101404.63;8348604;28;20108;-56
2022/07/17 16:53:03;;;;;;;3.75;1.25;;;;;;;27.80;38.33;101400.06;8353543;28;20076;-56
2022/07/17 16:57:03;;;;;;;5.50;1.50;;;;;;;27.84;38.85;101404.06;8354891;28;20082;-55
2022/07/17 17:01:04;;;;;;;3.63;1.60;;;;;;;27.78;38.74;101398.59;8347488;28;20037;-56
2022/07/17 17:05:06;;;;;;;3.67;1.67;;;;;;;27.77;38.71;101399.66;8345835;28;20068;-56
2022/07/17 17:09:06;;;;;;;2.83;1.33;;;;;;;27.65;38.51;101390.38;8354905;28;20136;-56
2022/07/17 17:13:07;;;;;;;2.65;1.35;;;;;;;27.32;37.94;101384.34;8353184;28;20053;-56
2022/07/17 17:17:07;;;;;;;3.73;1.53;;;;;;;27.39;37.25;101369.31;8354312;28;20057;-56
2022/07/17 17:21:08;;;;;;;3.05;1.10;;;;;;;27.55;36.89;101378.97;8352849;28;20446;-55
2022/07/17 17:25:09;;;;;;;3.90;1.23;;;;;;;27.61;37.49;101378.03;8352011;28;20102;-55
2022/07/17 17:29:09;;;;;;;5.22;1.55;;;;;;;27.60;36.72;101376.34;8349153;28;20171;-56
2022/07/17 17:33:09;;;;;;;3.10;1.40;;;;;;;27.48;38.62;101370.72;8353845;28;20508;-55
2022/07/17 17:37:10;;;;;;;8.07;2.35;;;;;;;27.47;39.18;101366.22;8350426;28;20256;-55
2022/07/17 17:41:10;;;;;;;8.33;1.90;;;;;;;27.28;39.76;101360.88;8340682;28;20033;-56
2022/07/17 17:45:11;;;;;;;10.85;2.47;;;;;;;27.29;40.97;101363.41;8333431;28;20079;-56
2022/07/17 17:49:11;;;;;;;8.65;2.22;;;;;;;27.30;41.66;101364.28;8332308;28;20043;-56
2022/07/17 17:53:12;;;;;;;5.85;2.30;;;;;;;27.27;40.66;101359.16;8331816;28;20055;-56
2022/07/17 17:57:12;;;;;;;4.33;2.30;;;;;;;27.23;41.28;101357.91;8335153;28;20117;-54
2022/07/17 18:01:12;;;;;;;9.88;2.33;;;;;;;27.21;40.96;101343.38;8327060;28;20693;-54
2022/07/17 18:05:13;;;;;;;8.15;2.58;;;;;;;27.17;41.78;101339.38;8332380;28;20068;-56
2022/07/17 18:09:13;;;;;;;6.53;2.63;;;;;;;27.01;42.15;101337.19;8333913;28;20067;-56
2022/07/17 18:13:14;;;;;;;9.15;2.22;;;;;;;27.08;41.54;101349.09;8332576;28;20045;-56
2022/07/17 18:17:15;;;;;;;7.15;2.30;;;;;;;27.16;41.51;101346.00;8333524;28;20081;-56
2022/07/17 18:21:15;;;;;;;5.60;2.33;;;;;;;27.03;42.09;101354.47;8336302;28;20117;-56
2022/07/17 18:25:16;;;;;;;4.47;2.20;;;;;;;27.10;43.54;101367.19;8334204;28;20310;-58
2022/07/17 18:29:17;;;;;;;8.57;2.03;;;;;;;27.09;43.82;101361.88;8334605;28;20111;-55
2022/07/17 18:33:17;;;;;;;6.00;2.00;;;;;;;26.97;42.36;101369.25;8334037;28;20560;-56
2022/07/17 18:37:18;;;;;;;7.18;1.95;;;;;;;26.69;43.48;101358.59;8310941;28;20044;-56
2022/07/17 18:41:19;;;;;;;6.78;2.40;;;;;;;26.52;43.63;101361.03;8336420;28;20068;-57